createdAt,value
2022-08-28T00:00:59.867Z,16.42
2022-08-28T00:03:26.806Z,15.93
2022-08-28T00:05:54.085Z,16.90
2022-08-28T00:08:21.296Z,17.35
2022-08-28T00:10:48.513Z,15.88
2022-08-28T00:13:19.919Z,16.10
2022-08-28T00:15:50.480Z,16.25
2022-08-28T00:18:18.696Z,17.20
2022-08-28T00:20:46.607Z,16.77
2022-08-28T00:23:14.761Z,16.15
2022-08-28T00:25:41.985Z,16.02
2022-08-28T00:28:15.368Z,15.73
2022-08-28T00:30:54.671Z,16.58
2022-08-28T00:33:28.130Z,15.23
2022-08-28T00:35:55.578Z,15.98
2022-08-28T00:38:24.283Z,15.88
2022-08-28T00:40:55.757Z,15.43
2022-08-28T00:43:40.106Z,14.60
2022-08-28T00:46:19.793Z,15.40
2022-08-28T00:48:47.653Z,15.80
2022-08-28T00:51:37.012Z,14.95
2022-08-28T00:54:07.739Z,14.80
2022-08-28T00:56:36.085Z,13.75
2022-08-28T00:59:09.046Z,14.35
2022-08-28T01:01:36.699Z,14.88
2022-08-28T01:04:06.316Z,14.13
2022-08-28T01:06:35.438Z,14.48
2022-08-28T01:09:03.509Z,13.85
2022-08-28T01:11:31.370Z,15.52
2022-08-28T01:14:01.943Z,14.70
2022-08-28T01:16:33.768Z,14.23
2022-08-28T01:19:02.374Z,13.80
2022-08-28T01:21:39.211Z,13.60
2022-08-28T01:24:18.617Z,14.27
2022-08-28T01:26:45.572Z,13.27
2022-08-28T01:29:13.236Z,14.50
2022-08-28T01:31:41.294Z,14.65
2022-08-28T01:34:10.551Z,13.18
2022-08-28T01:36:37.679Z,14.60
2022-08-28T01:39:12.083Z,15.18
2022-08-28T01:41:43.592Z,15.20
2022-08-28T01:44:10.618Z,15.40
2022-08-28T01:46:37.688Z,14.02
2022-08-28T01:49:06.523Z,14.80
2022-08-28T01:51:35.288Z,14.30
2022-08-28T01:54:06.229Z,13.85
2022-08-28T01:56:33.713Z,14.48
2022-08-28T01:59:03.499Z,13.48
2022-08-28T02:01:30.594Z,14.15
2022-08-28T02:03:57.612Z,13.43
2022-08-28T02:06:25.915Z,14.07
2022-08-28T02:08:55.721Z,14.88
2022-08-28T02:11:24.274Z,13.18
2022-08-28T02:13:52.877Z,13.70
2022-08-28T02:16:21.881Z,14.67
2022-08-28T02:18:49.117Z,13.73
2022-08-28T02:21:16.220Z,14.30
2022-08-28T02:23:44.696Z,14.55
2022-08-28T02:26:13.336Z,13.45
2022-08-28T02:28:41.331Z,14.35
2022-08-28T02:31:09.444Z,14.70
2022-08-28T02:33:43.694Z,13.93
2022-08-28T02:36:21.166Z,14.25
2022-08-28T02:38:48.315Z,14.18
2022-08-28T02:41:15.267Z,13.25
2022-08-28T02:43:42.328Z,14.13
2022-08-28T02:46:09.776Z,13.55
2022-08-28T02:48:38.715Z,13.60
2022-08-28T02:51:09.494Z,12.68
2022-08-28T02:53:36.866Z,13.75
2022-08-28T02:56:05.011Z,14.82
2022-08-28T02:58:35.435Z,14.43
2022-08-28T03:01:05.030Z,13.63
2022-08-28T03:03:32.634Z,12.63
2022-08-28T03:06:03.308Z,13.50
2022-08-28T03:08:31.714Z,13.00
2022-08-28T03:11:00.009Z,12.90
2022-08-28T03:13:27.748Z,13.65
2022-08-28T03:15:56.006Z,13.45
2022-08-28T03:18:25.416Z,13.73
2022-08-28T03:20:52.919Z,13.48
2022-08-28T03:23:28.942Z,13.40
2022-08-28T03:26:28.675Z,13.45
2022-08-28T03:28:57.681Z,12.93
2022-08-28T03:33:55.068Z,12.65
2022-08-28T03:36:28.491Z,12.02
2022-08-28T03:39:01.164Z,12.32
2022-08-28T03:41:32.614Z,11.80
2022-08-28T03:44:03.460Z,12.20
2022-08-28T03:46:34.908Z,11.52
2022-08-28T03:49:09.734Z,11.60
2022-08-28T03:51:40.265Z,11.18
2022-08-28T03:54:09.780Z,11.38
2022-08-28T03:56:47.772Z,10.68
2022-08-28T03:59:17.995Z,10.02
2022-08-28T04:01:47.653Z,11.33
2022-08-28T04:04:17.822Z,10.63
2022-08-28T04:06:48.663Z,10.98
2022-08-28T04:11:49.107Z,10.10
2022-08-28T04:16:43.202Z,9.65
2022-08-28T04:19:10.231Z,10.15
2022-08-28T04:21:37.411Z,9.77
2022-08-28T04:24:08.991Z,9.93
2022-08-28T04:26:36.969Z,9.63
2022-08-28T04:29:05.582Z,9.57
2022-08-28T04:31:33.275Z,8.95
2022-08-28T04:34:02.458Z,9.98
2022-08-28T04:36:29.566Z,8.95
2022-08-28T04:38:58.102Z,9.63
2022-08-28T04:41:25.101Z,8.88
2022-08-28T04:43:52.991Z,8.73
2022-08-28T04:46:20.568Z,8.77
2022-08-28T04:48:47.666Z,9.38
2022-08-28T04:51:15.305Z,8.95
2022-08-28T04:53:43.072Z,8.90
2022-08-28T04:56:13.049Z,9.57
2022-08-28T04:58:41.954Z,9.15
2022-08-28T05:01:13.188Z,8.93
2022-08-28T05:03:40.848Z,9.50
2022-08-28T05:06:09.534Z,8.60
2022-08-28T05:08:36.719Z,9.50
2022-08-28T05:11:33.121Z,8.82
2022-08-28T05:14:04.581Z,8.52
2022-08-28T05:16:32.466Z,8.88
2022-08-28T05:19:01.001Z,15.05
2022-08-28T05:21:28.411Z,15.48
2022-08-28T05:23:57.559Z,12.85
2022-08-28T05:26:26.855Z,9.02
2022-08-28T05:28:56.465Z,9.63
2022-08-28T05:31:24.683Z,9.20
2022-08-28T05:33:53.624Z,8.55
2022-08-28T05:36:23.218Z,8.57
2022-08-28T05:38:56.863Z,8.65
2022-08-28T05:41:30.325Z,8.95
2022-08-28T05:44:03.217Z,7.97
2022-08-28T05:46:31.196Z,8.48
2022-08-28T05:49:00.266Z,8.73
2022-08-28T05:51:28.154Z,8.57
2022-08-28T05:53:57.750Z,8.90
2022-08-28T05:56:29.890Z,8.30
2022-08-28T05:59:01.734Z,8.35
2022-08-28T06:01:31.432Z,9.07
2022-08-28T06:04:01.250Z,8.57
2022-08-28T06:06:39.674Z,8.68
2022-08-28T06:09:13.884Z,8.48
2022-08-28T06:11:46.257Z,8.35
2022-08-28T06:14:20.732Z,8.20
2022-08-28T06:16:55.917Z,8.57
2022-08-28T06:19:27.978Z,8.30
2022-08-28T06:22:01.689Z,8.30
2022-08-28T06:24:41.941Z,8.15
2022-08-28T06:27:09.419Z,8.77
2022-08-28T06:29:36.659Z,10.93
2022-08-28T06:32:06.842Z,8.32
2022-08-28T06:34:34.472Z,8.75
2022-08-28T06:37:01.440Z,7.95
2022-08-28T06:39:28.418Z,8.43
2022-08-28T06:41:55.518Z,15.07
2022-08-28T06:44:22.739Z,8.20
2022-08-28T06:46:52.183Z,11.98
2022-08-28T06:49:19.479Z,10.15
2022-08-28T06:51:46.626Z,8.77
2022-08-28T06:54:18.444Z,7.70
2022-08-28T06:56:48.422Z,7.60
2022-08-28T06:59:15.393Z,7.95
2022-08-28T07:01:42.479Z,8.20
2022-08-28T07:04:11.343Z,8.10
2022-08-28T07:06:41.355Z,8.30
2022-08-28T07:09:11.461Z,7.03
2022-08-28T07:11:39.799Z,7.35
2022-08-28T07:14:07.326Z,7.50
2022-08-28T07:16:38.443Z,7.28
2022-08-28T07:19:07.301Z,7.35
2022-08-28T07:21:38.791Z,7.10
2022-08-28T07:24:08.397Z,7.38
2022-08-28T07:26:36.190Z,6.90
2022-08-28T07:29:09.875Z,7.05
2022-08-28T07:31:41.064Z,7.03
2022-08-28T07:34:09.636Z,7.38
2022-08-28T07:36:37.154Z,6.93
2022-08-28T07:39:05.468Z,7.10
2022-08-28T07:41:35.660Z,6.47
2022-08-28T07:44:21.592Z,6.35
2022-08-28T07:46:48.886Z,6.32
2022-08-28T07:49:17.256Z,6.38
2022-08-28T07:51:46.704Z,6.10
2022-08-28T07:54:17.627Z,6.85
2022-08-28T07:56:45.886Z,7.00
2022-08-28T07:59:16.841Z,6.35
2022-08-28T08:01:47.866Z,6.68
2022-08-28T08:04:16.653Z,6.55
2022-08-28T08:06:44.828Z,7.00
2022-08-28T08:09:15.690Z,6.57
2022-08-28T08:11:43.104Z,6.35
2022-08-28T08:14:10.588Z,6.28
2022-08-28T08:16:40.378Z,6.25
2022-08-28T08:19:10.116Z,5.88
2022-08-28T08:21:37.684Z,6.18
2022-08-28T08:24:05.417Z,5.97
2022-08-28T08:26:33.177Z,6.25
2022-08-28T08:29:00.871Z,5.90
2022-08-28T08:31:32.478Z,5.60
2022-08-28T08:34:03.759Z,5.72
2022-08-28T08:36:32.501Z,6.13
2022-08-28T08:39:00.632Z,6.10
2022-08-28T08:41:48.092Z,5.55
2022-08-28T08:44:33.938Z,5.43
2022-08-28T08:47:22.985Z,5.32
2022-08-28T08:49:57.531Z,5.38
2022-08-28T08:52:52.248Z,5.65
2022-08-28T08:55:31.575Z,5.45
2022-08-28T08:58:07.727Z,5.60
2022-08-28T09:01:09.080Z,5.05
2022-08-28T09:03:45.254Z,5.25
2022-08-28T09:06:25.857Z,5.47
2022-08-28T09:09:02.391Z,5.13
2022-08-28T09:11:33.416Z,4.80
2022-08-28T09:14:10.302Z,4.72
2022-08-28T09:16:40.880Z,4.97
2022-08-28T09:19:11.736Z,4.90
2022-08-28T09:21:44.926Z,4.03
2022-08-28T09:24:26.287Z,5.13
2022-08-28T09:27:13.696Z,4.72
2022-08-28T09:29:47.180Z,5.00
2022-08-28T09:32:30.926Z,4.70
2022-08-28T09:35:15.941Z,4.93
2022-08-28T09:37:44.282Z,4.95
2022-08-28T09:40:14.226Z,4.70
2022-08-28T09:43:07.595Z,4.95
2022-08-28T09:45:34.567Z,4.78
2022-08-28T09:48:03.569Z,5.18
2022-08-28T09:50:37.191Z,5.10
2022-08-28T09:53:10.101Z,5.35
2022-08-28T09:55:42.005Z,4.63
2022-08-28T09:58:09.889Z,4.60
2022-08-28T10:00:51.196Z,4.15
2022-08-28T10:03:30.951Z,4.45
2022-08-28T10:06:11.418Z,4.70
2022-08-28T10:09:06.160Z,4.47
2022-08-28T10:12:00.816Z,4.10
2022-08-28T10:14:59.331Z,4.18
2022-08-28T10:17:46.095Z,3.70
2022-08-28T10:20:37.345Z,4.03
2022-08-28T10:23:22.046Z,4.03
2022-08-28T10:25:55.737Z,4.07
2022-08-28T10:28:28.854Z,3.72
2022-08-28T10:31:07.388Z,4.30
2022-08-28T10:33:50.497Z,3.83
2022-08-28T10:36:33.571Z,4.18
2022-08-28T10:39:47.428Z,3.78
2022-08-28T10:42:18.910Z,4.40
2022-08-28T10:45:05.444Z,4.13
2022-08-28T10:47:36.149Z,4.28
2022-08-28T10:50:12.623Z,4.00
2022-08-28T10:52:46.607Z,3.80
2022-08-28T10:55:27.039Z,3.83
2022-08-28T11:00:30.535Z,4.68
2022-08-28T11:03:32.689Z,4.45
2022-08-28T11:06:08.412Z,4.43
2022-08-28T11:08:38.169Z,4.13
2022-08-28T11:11:12.357Z,4.97
2022-08-28T11:13:48.650Z,4.40
2022-08-28T11:16:23.901Z,4.38
2022-08-28T11:19:18.395Z,4.22
2022-08-28T11:21:52.317Z,4.57
2022-08-28T11:24:43.681Z,4.50
2022-08-28T11:27:20.176Z,4.30
2022-08-28T11:30:11.332Z,4.07
2022-08-28T11:32:49.698Z,3.75
2022-08-28T11:35:44.232Z,4.65
2022-08-28T11:38:12.444Z,4.00
2022-08-28T11:40:40.784Z,4.50
2022-08-28T11:43:17.078Z,4.53
2022-08-28T11:45:47.079Z,5.00
2022-08-28T11:51:03.878Z,4.60
